createdAt,value
2018-01-23T00:00:36.351Z,0
2018-01-23T00:01:46.375Z,0
2018-01-23T00:02:56.079Z,0
2018-01-23T00:04:05.786Z,0
2018-01-23T00:05:15.756Z,0
2018-01-23T00:06:25.735Z,0
2018-01-23T00:07:35.439Z,0
2018-01-23T00:08:45.147Z,0
2018-01-23T00:09:55.123Z,0
2018-01-23T00:11:04.833Z,0
2018-01-23T00:12:14.808Z,0
2018-01-23T00:13:24.891Z,0
2018-01-23T00:14:34.601Z,0
2018-01-23T00:15:44.318Z,0
2018-01-23T00:16:54.069Z,0
2018-01-23T00:18:03.775Z,0
2018-01-23T00:19:13.482Z,0
2018-01-23T00:20:23.188Z,0
2018-01-23T00:21:32.892Z,0
2018-01-23T00:22:42.595Z,0
2018-01-23T00:23:52.297Z,0
2018-01-23T00:25:02.003Z,0
2018-01-23T00:26:11.975Z,0
2018-01-23T00:27:21.679Z,0
2018-01-23T00:28:31.659Z,0
2018-01-23T00:29:41.634Z,0
2018-01-23T00:30:51.441Z,0
2018-01-23T00:32:01.411Z,0
2018-01-23T00:33:10.855Z,0
2018-01-23T00:34:20.827Z,0
2018-01-23T00:35:30.801Z,0
2018-01-23T00:36:40.508Z,0
2018-01-23T00:37:50.475Z,0
2018-01-23T00:39:00.443Z,0
2018-01-23T00:40:09.619Z,0
2018-01-23T00:41:19.323Z,0
2018-01-23T00:42:29.027Z,0
2018-01-23T00:43:38.995Z,0
2018-01-23T00:44:48.434Z,0
2018-01-23T00:45:58.405Z,0
2018-01-23T00:47:08.372Z,0
2018-01-23T00:48:18.337Z,0
2018-01-23T00:49:28.311Z,0
2018-01-23T00:50:38.278Z,0
2018-01-23T00:51:48.248Z,0
2018-01-23T00:52:57.956Z,0
2018-01-23T00:54:07.396Z,0
2018-01-23T00:55:17.363Z,0
2018-01-23T00:56:27.069Z,0
2018-01-23T00:57:37.038Z,0
2018-01-23T00:58:46.741Z,0
2018-01-23T00:59:56.714Z,0
2018-01-23T01:01:06.420Z,0
2018-01-23T01:02:16.128Z,0
2018-01-23T01:03:26.101Z,0
2018-01-23T01:04:36.071Z,0
2018-01-23T01:05:45.780Z,0
2018-01-23T01:06:55.487Z,0
2018-01-23T01:08:05.191Z,0
2018-01-23T01:09:14.366Z,0
2018-01-23T01:10:23.808Z,0
2018-01-23T01:11:33.796Z,0
2018-01-23T01:12:43.768Z,0
2018-01-23T01:13:53.741Z,0
2018-01-23T01:15:03.446Z,0
2018-01-23T01:16:13.414Z,0
2018-01-23T01:17:23.392Z,0
2018-01-23T01:18:33.362Z,0
2018-01-23T01:19:43.066Z,0
2018-01-23T01:20:52.510Z,0
2018-01-23T01:22:01.963Z,0
2018-01-23T01:23:11.933Z,0
2018-01-23T01:24:21.638Z,0
2018-01-23T01:25:31.611Z,0
2018-01-23T01:26:41.324Z,0
2018-01-23T01:27:51.043Z,0
2018-01-23T01:29:00.758Z,0
2018-01-23T01:30:10.482Z,0
2018-01-23T01:31:20.199Z,0
2018-01-23T01:32:30.183Z,0
2018-01-23T01:33:40.171Z,0
2018-01-23T01:34:49.621Z,0
2018-01-23T01:35:59.606Z,0
2018-01-23T01:37:09.324Z,0
2018-01-23T01:38:19.308Z,0
2018-01-23T01:39:29.022Z,0
2018-01-23T01:40:38.999Z,0
2018-01-23T01:41:48.712Z,0
2018-01-23T01:42:58.691Z,0
2018-01-23T01:44:08.405Z,0
2018-01-23T01:45:18.173Z,0
2018-01-23T01:46:28.203Z,0
2018-01-23T01:47:38.183Z,0
2018-01-23T01:48:47.633Z,0
2018-01-23T01:49:57.080Z,0
2018-01-23T01:51:06.531Z,0
2018-01-23T01:52:16.249Z,0
2018-01-23T01:53:26.227Z,0
2018-01-23T01:54:36.216Z,0
2018-01-23T01:55:46.193Z,0
2018-01-23T01:56:55.643Z,0
2018-01-23T01:58:05.361Z,0
2018-01-23T01:59:15.081Z,0
2018-01-23T02:00:24.794Z,0
2018-01-23T02:01:34.778Z,0
2018-01-23T02:02:44.227Z,0
2018-01-23T02:03:54.304Z,0
2018-01-23T02:05:04.290Z,0
2018-01-23T02:06:14.275Z,0
2018-01-23T02:07:24.256Z,0
2018-01-23T02:08:33.971Z,0
2018-01-23T02:09:43.684Z,0
2018-01-23T02:10:53.717Z,0
2018-01-23T02:12:03.701Z,0
2018-01-23T02:13:13.683Z,0
2018-01-23T02:14:23.666Z,0
2018-01-23T02:15:33.651Z,0
2018-01-23T02:16:43.631Z,0
2018-01-23T02:17:53.345Z,0
2018-01-23T02:19:03.328Z,0
2018-01-23T02:20:12.781Z,0
2018-01-23T02:21:22.494Z,0
2018-01-23T02:22:32.213Z,0
2018-01-23T02:23:41.931Z,0
2018-01-23T02:24:51.648Z,0
2018-01-23T02:26:01.363Z,0
2018-01-23T02:27:11.096Z,0
2018-01-23T02:28:21.076Z,0
2018-01-23T02:29:31.056Z,0
2018-01-23T02:30:41.101Z,0
2018-01-23T02:31:51.085Z,0
2018-01-23T02:33:00.543Z,0
2018-01-23T02:34:10.265Z,0
2018-01-23T02:35:19.732Z,0
2018-01-23T02:36:29.788Z,0
2018-01-23T02:37:39.770Z,0
2018-01-23T02:38:49.803Z,0
2018-01-23T02:39:59.787Z,0
2018-01-23T02:41:08.972Z,0
2018-01-23T02:42:18.701Z,0
2018-01-23T02:43:28.416Z,0
2018-01-23T02:44:38.400Z,0
2018-01-23T02:45:48.115Z,0
2018-01-23T02:46:57.829Z,0
2018-01-23T02:48:07.547Z,0
2018-01-23T02:49:17.533Z,0
2018-01-23T02:50:27.257Z,0
2018-01-23T02:51:37.254Z,0
2018-01-23T02:52:46.971Z,0
2018-01-23T02:53:56.694Z,0
2018-01-23T02:55:06.680Z,0
2018-01-23T02:56:16.405Z,0
2018-01-23T02:57:26.392Z,0
2018-01-23T02:58:36.375Z,0
2018-01-23T02:59:46.356Z,0
2018-01-23T03:00:56.068Z,0
2018-01-23T03:02:05.572Z,0
2018-01-23T03:03:15.288Z,0
2018-01-23T03:04:25.275Z,0
2018-01-23T03:05:34.724Z,0
2018-01-23T03:06:44.723Z,0
2018-01-23T03:07:54.703Z,0
2018-01-23T03:09:04.417Z,0
2018-01-23T03:10:14.155Z,0
2018-01-23T03:11:24.133Z,0
2018-01-23T03:12:34.113Z,0
2018-01-23T03:13:44.252Z,0
2018-01-23T03:14:53.968Z,0
2018-01-23T03:16:03.949Z,0
2018-01-23T03:17:13.930Z,0
2018-01-23T03:18:23.643Z,0
2018-01-23T03:19:33.623Z,0
2018-01-23T03:20:43.604Z,0
2018-01-23T03:21:53.586Z,0
2018-01-23T03:23:03.036Z,0
2018-01-23T03:24:12.753Z,0
2018-01-23T03:25:22.731Z,0
2018-01-23T03:26:32.709Z,0
2018-01-23T03:27:42.425Z,0
2018-01-23T03:28:52.403Z,0
2018-01-23T03:30:02.402Z,0
2018-01-23T03:31:12.404Z,0
2018-01-23T03:32:22.123Z,0
2018-01-23T03:33:31.837Z,0
2018-01-23T03:34:41.551Z,0
2018-01-23T03:35:51.268Z,0
2018-01-23T03:37:00.717Z,0
2018-01-23T03:38:09.902Z,0
2018-01-23T03:39:19.889Z,0
2018-01-23T03:40:29.609Z,0
2018-01-23T03:41:39.596Z,0
2018-01-23T03:42:49.575Z,0
2018-01-23T03:43:59.291Z,0
2018-01-23T03:45:09.006Z,0
2018-01-23T03:46:18.464Z,0
2018-01-23T03:47:28.457Z,0
2018-01-23T03:48:38.273Z,0
2018-01-23T03:49:48.012Z,0
2018-01-23T03:50:57.992Z,0
2018-01-23T03:52:07.178Z,0
2018-01-23T03:53:17.159Z,0
2018-01-23T03:54:26.884Z,0
2018-01-23T03:55:36.865Z,0
2018-01-23T03:56:46.892Z,0
2018-01-23T03:57:56.607Z,0
2018-01-23T03:59:06.586Z,0
2018-01-23T04:03:23.766Z,0
2018-01-23T04:04:33.487Z,0
2018-01-23T04:05:43.569Z,0
2018-01-23T04:06:53.293Z,0
2018-01-23T04:08:03.278Z,0
2018-01-23T04:09:12.998Z,0
2018-01-23T04:10:22.984Z,0
2018-01-23T04:11:33.024Z,0
2018-01-23T04:12:43.002Z,0
2018-01-23T04:13:52.453Z,0
2018-01-23T04:15:02.177Z,0
2018-01-23T04:16:11.895Z,0
2018-01-23T04:17:21.612Z,0
2018-01-23T04:18:31.600Z,0
2018-01-23T04:19:41.317Z,0
2018-01-23T04:20:51.302Z,0
2018-01-23T04:22:01.021Z,0
2018-01-23T04:23:11.295Z,0
2018-01-23T04:24:21.299Z,0
2018-01-23T04:25:30.726Z,0
2018-01-23T04:26:40.445Z,0
2018-01-23T04:27:49.631Z,0
2018-01-23T04:28:59.084Z,0
2018-01-23T04:30:08.272Z,0
2018-01-23T04:31:18.258Z,0
2018-01-23T04:32:27.975Z,0
2018-01-23T04:33:37.973Z,0
2018-01-23T04:34:48.012Z,0
2018-01-23T04:35:57.734Z,0
2018-01-23T04:37:07.190Z,0
2018-01-23T04:38:16.906Z,0
2018-01-23T04:39:26.620Z,0
2018-01-23T04:40:43.457Z,0
2018-01-23T04:41:52.910Z,0
2018-01-23T04:43:02.625Z,0
2018-01-23T04:44:12.119Z,0
2018-01-23T04:45:22.107Z,0
2018-01-23T04:46:32.138Z,0
2018-01-23T04:47:42.118Z,0
2018-01-23T04:48:52.099Z,0
2018-01-23T04:50:01.817Z,0
2018-01-23T04:51:11.268Z,0
2018-01-23T04:52:21.299Z,0
2018-01-23T04:53:31.288Z,0
2018-01-23T04:54:41.034Z,0
2018-01-23T04:55:51.015Z,0
2018-01-23T04:57:00.469Z,0
2018-01-23T04:58:10.290Z,0
2018-01-23T04:59:19.740Z,0
2018-01-23T05:00:29.724Z,0
2018-01-23T05:01:39.705Z,0
2018-01-23T05:02:49.690Z,0
2018-01-23T05:03:59.191Z,0
2018-01-23T05:05:08.907Z,0
2018-01-23T05:06:18.623Z,0
2018-01-23T05:07:28.604Z,0
2018-01-23T05:08:38.587Z,0
2018-01-23T05:09:48.575Z,0
2018-01-23T05:10:58.562Z,0
2018-01-23T05:12:08.547Z,0
2018-01-23T05:13:18.535Z,0
2018-01-23T05:14:28.515Z,0
2018-01-23T05:15:38.236Z,0
2018-01-23T05:16:47.952Z,0
2018-01-23T05:17:57.935Z,0
2018-01-23T05:19:07.393Z,0
2018-01-23T05:20:17.380Z,0
2018-01-23T05:21:27.362Z,0
2018-01-23T05:22:37.341Z,0
2018-01-23T05:23:46.800Z,0
2018-01-23T05:24:56.515Z,0
2018-01-23T05:26:06.234Z,0
2018-01-23T05:27:15.950Z,0
2018-01-23T05:28:25.405Z,0
2018-01-23T05:29:35.400Z,0
2018-01-23T05:30:45.121Z,0
2018-01-23T05:31:55.103Z,0
2018-01-23T05:33:04.818Z,0
2018-01-23T05:34:14.800Z,0
2018-01-23T05:35:24.516Z,0
2018-01-23T05:36:34.287Z,0
2018-01-23T05:37:44.005Z,0
2018-01-23T05:38:53.985Z,0
2018-01-23T05:40:03.974Z,0
2018-01-23T05:41:13.959Z,0
2018-01-23T05:42:23.672Z,0
2018-01-23T05:43:33.652Z,0
2018-01-23T05:44:43.634Z,0
2018-01-23T05:45:53.618Z,0
2018-01-23T05:47:03.337Z,0
2018-01-23T05:48:13.322Z,0
2018-01-23T05:49:23.303Z,0
2018-01-23T05:50:32.754Z,0
2018-01-23T05:51:42.735Z,0
2018-01-23T05:52:52.718Z,0
2018-01-23T05:54:02.700Z,0
2018-01-23T05:55:12.418Z,0
2018-01-23T05:56:22.151Z,0
2018-01-23T05:57:32.138Z,0
2018-01-23T05:58:42.118Z,0
2018-01-23T05:59:52.103Z,0
2018-01-23T06:01:01.578Z,0
2018-01-23T06:02:11.033Z,0
2018-01-23T06:03:20.750Z,0
2018-01-23T06:04:30.466Z,0
2018-01-23T06:05:40.447Z,0
2018-01-23T06:06:50.482Z,0
2018-01-23T06:08:00.464Z,0
2018-01-23T06:09:10.449Z,0
2018-01-23T06:10:20.433Z,0
2018-01-23T06:11:30.416Z,0
2018-01-23T06:12:40.396Z,0
2018-01-23T06:13:50.113Z,0
2018-01-23T06:14:59.565Z,0
2018-01-23T06:16:09.016Z,0
2018-01-23T06:17:18.734Z,0
2018-01-23T06:18:28.718Z,0
2018-01-23T06:19:38.709Z,0
2018-01-23T06:20:48.689Z,0
2018-01-23T06:21:58.411Z,0
2018-01-23T06:23:08.396Z,0
2018-01-23T06:24:18.380Z,0
2018-01-23T06:25:28.415Z,0
2018-01-23T06:26:38.421Z,0
2018-01-23T06:27:48.414Z,0
2018-01-23T06:28:58.129Z,0
2018-01-23T06:30:07.853Z,0
2018-01-23T06:31:17.569Z,0
2018-01-23T06:32:27.606Z,0
2018-01-23T06:33:37.588Z,0
2018-01-23T06:34:47.310Z,0
2018-01-23T06:35:57.026Z,0
2018-01-23T06:37:06.745Z,0
2018-01-23T06:38:15.934Z,0
2018-01-23T06:39:25.921Z,0
2018-01-23T06:40:35.917Z,0
2018-01-23T06:41:45.905Z,0
2018-01-23T06:42:55.892Z,0
2018-01-23T06:44:05.609Z,0
2018-01-23T06:45:15.332Z,0
2018-01-23T06:46:25.061Z,0
2018-01-23T06:47:35.055Z,0
2018-01-23T06:48:44.778Z,0
2018-01-23T06:49:54.767Z,0
2018-01-23T06:51:04.495Z,0
2018-01-23T06:52:14.214Z,0
2018-01-23T06:53:23.935Z,0
2018-01-23T06:54:33.487Z,0
2018-01-23T06:55:43.467Z,0
2018-01-23T06:56:53.445Z,0
2018-01-23T06:58:03.165Z,0
2018-01-23T06:59:13.149Z,0
2018-01-23T07:00:23.204Z,0
2018-01-23T07:01:32.657Z,0
2018-01-23T07:02:42.381Z,0
2018-01-23T07:03:52.363Z,0
2018-01-23T07:05:02.348Z,0
2018-01-23T07:06:12.064Z,0
2018-01-23T07:07:21.785Z,0
2018-01-23T07:08:31.534Z,0
2018-01-23T07:09:41.520Z,0
2018-01-23T07:10:51.509Z,0
2018-01-23T07:12:01.230Z,0
2018-01-23T07:13:10.697Z,0
2018-01-23T07:14:20.687Z,0
2018-01-23T07:15:30.414Z,0
2018-01-23T07:16:40.133Z,0
2018-01-23T07:17:50.123Z,0
2018-01-23T07:18:59.850Z,0
2018-01-23T07:20:09.579Z,0
2018-01-23T07:21:19.304Z,0
2018-01-23T07:22:29.346Z,0
2018-01-23T07:23:39.439Z,0
2018-01-23T07:24:49.164Z,0
2018-01-23T07:25:59.162Z,0
2018-01-23T07:27:09.154Z,0
2018-01-23T07:28:18.612Z,0
2018-01-23T07:29:28.395Z,0
2018-01-23T07:30:38.391Z,0
2018-01-23T07:31:48.118Z,0
2018-01-23T07:32:58.146Z,0
2018-01-23T07:34:07.875Z,0
2018-01-23T07:35:17.968Z,0
2018-01-23T07:36:27.965Z,0
2018-01-23T07:37:37.960Z,0
2018-01-23T07:38:47.686Z,0
2018-01-23T07:39:57.680Z,0
2018-01-23T07:41:07.454Z,0
2018-01-23T07:42:17.186Z,0
2018-01-23T07:43:26.913Z,0
2018-01-23T07:44:36.704Z,0
2018-01-23T07:45:46.708Z,0
2018-01-23T07:46:56.707Z,0
2018-01-23T07:48:06.697Z,0
2018-01-23T07:49:16.432Z,0
2018-01-23T07:50:26.424Z,0
2018-01-23T07:51:36.159Z,0
2018-01-23T07:52:45.891Z,0
2018-01-23T07:53:55.889Z,5
2018-01-23T07:55:05.930Z,5
2018-01-23T07:56:15.658Z,5
2018-01-23T07:57:25.648Z,5
2018-01-23T07:58:35.111Z,5
2018-01-23T07:59:45.099Z,5
2018-01-23T08:00:55.080Z,5
2018-01-23T08:02:04.802Z,5
2018-01-23T08:03:14.798Z,5
2018-01-23T08:04:24.777Z,5
2018-01-23T08:05:34.487Z,5
2018-01-23T08:06:44.457Z,10
2018-01-23T08:07:54.431Z,10
2018-01-23T08:09:04.144Z,10
2018-01-23T08:10:13.592Z,10
2018-01-23T08:11:23.568Z,10
2018-01-23T08:12:33.279Z,10
2018-01-23T08:13:42.721Z,10
2018-01-23T08:14:52.706Z,10
2018-01-23T08:16:02.471Z,10
2018-01-23T08:17:12.454Z,10
2018-01-23T08:18:22.425Z,10
2018-01-23T08:19:32.239Z,10
2018-01-23T08:20:42.226Z,15
2018-01-23T08:21:51.992Z,15
2018-01-23T08:23:01.968Z,15
2018-01-23T08:24:11.683Z,15
2018-01-23T08:25:21.139Z,15
2018-01-23T08:26:31.108Z,15
2018-01-23T08:27:41.178Z,15
2018-01-23T08:28:50.885Z,15
2018-01-23T08:30:00.595Z,20
2018-01-23T08:31:10.046Z,20
2018-01-23T08:32:20.027Z,20
2018-01-23T08:33:30.007Z,20
2018-01-23T08:34:40.102Z,20
2018-01-23T08:35:50.082Z,20
2018-01-23T08:37:00.069Z,20
2018-01-23T08:38:09.513Z,25
2018-01-23T08:39:19.219Z,25
2018-01-23T08:40:29.192Z,25
2018-01-23T08:41:39.166Z,25
2018-01-23T08:42:48.878Z,25
2018-01-23T08:43:58.587Z,30
2018-01-23T08:45:08.079Z,30
2018-01-23T08:46:18.072Z,30
2018-01-23T08:47:27.781Z,30
2018-01-23T08:48:37.761Z,30
2018-01-23T08:49:47.474Z,30
2018-01-23T08:50:57.452Z,30
2018-01-23T08:52:06.897Z,35
2018-01-23T08:53:16.607Z,35
2018-01-23T08:54:26.592Z,35
2018-01-23T08:55:36.307Z,35
2018-01-23T08:56:45.748Z,40
2018-01-23T08:57:55.784Z,40
2018-01-23T08:59:05.760Z,45
2018-01-23T09:00:15.753Z,45
2018-01-23T09:01:25.465Z,45
2018-01-23T09:02:35.492Z,50
2018-01-23T09:03:45.203Z,50
2018-01-23T09:04:55.181Z,55
2018-01-23T09:06:05.157Z,55
2018-01-23T09:07:14.866Z,55
2018-01-23T09:08:24.315Z,60
2018-01-23T09:09:33.763Z,60
2018-01-23T09:10:43.792Z,60
2018-01-23T09:11:53.775Z,60
2018-01-23T09:13:03.750Z,60
2018-01-23T09:14:14.032Z,65
2018-01-23T09:15:24.010Z,65
2018-01-23T09:16:33.459Z,65
2018-01-23T09:17:43.174Z,65
2018-01-23T09:18:52.629Z,65
2018-01-23T09:20:02.177Z,65
2018-01-23T09:21:11.358Z,65
2018-01-23T09:22:21.340Z,65
2018-01-23T09:23:31.329Z,70
2018-01-23T09:24:41.328Z,70
2018-01-23T09:25:51.036Z,70
2018-01-23T09:27:00.745Z,70
2018-01-23T09:28:10.197Z,70
2018-01-23T09:29:19.386Z,70
2018-01-23T09:30:29.364Z,75
2018-01-23T09:31:38.812Z,75
2018-01-23T09:32:48.797Z,75
2018-01-23T09:33:58.244Z,80
2018-01-23T09:35:08.225Z,80
2018-01-23T09:36:17.932Z,80
2018-01-23T09:37:27.643Z,80
2018-01-23T09:38:37.621Z,80
2018-01-23T09:39:47.334Z,80
2018-01-23T09:40:57.048Z,80
2018-01-23T09:42:07.018Z,80
2018-01-23T09:43:17.046Z,80
2018-01-23T09:44:26.755Z,80
2018-01-23T09:45:36.740Z,80
2018-01-23T09:46:46.189Z,80
2018-01-23T09:47:56.188Z,80
2018-01-23T09:49:06.167Z,80
2018-01-23T09:50:15.620Z,80
2018-01-23T09:51:25.598Z,80
2018-01-23T09:52:35.311Z,80
2018-01-23T09:53:45.027Z,80
2018-01-23T09:54:55.101Z,80
2018-01-23T09:56:05.080Z,80
2018-01-23T09:57:15.059Z,80
2018-01-23T09:58:24.845Z,85
2018-01-23T09:59:35.000Z,85
2018-01-23T10:00:44.713Z,85
2018-01-23T10:01:54.689Z,90
2018-01-23T10:03:04.998Z,90
2018-01-23T10:04:14.979Z,90
2018-01-23T10:05:24.700Z,95
2018-01-23T10:06:34.517Z,95
2018-01-23T10:07:44.495Z,95
2018-01-23T10:08:54.208Z,100
2018-01-23T10:10:04.195Z,100
2018-01-23T10:11:14.175Z,100
2018-01-23T10:12:23.886Z,100
2018-01-23T10:13:33.596Z,100
2018-01-23T10:14:43.308Z,105
2018-01-23T10:15:53.288Z,105
2018-01-23T10:17:03.262Z,110
2018-01-23T10:18:13.463Z,110
2018-01-23T10:19:23.436Z,110
2018-01-23T10:20:33.415Z,110
2018-01-23T10:21:43.138Z,110
2018-01-23T10:22:52.897Z,110
2018-01-23T10:24:02.927Z,110
2018-01-23T10:25:12.643Z,110
2018-01-23T10:26:22.357Z,110
2018-01-23T10:27:32.336Z,110
2018-01-23T10:28:42.324Z,110
2018-01-23T10:29:52.348Z,105
2018-01-23T10:31:02.059Z,105
2018-01-23T10:32:12.046Z,105
2018-01-23T10:33:22.025Z,110
2018-01-23T10:34:31.735Z,110
2018-01-23T10:35:41.821Z,115
2018-01-23T10:36:51.545Z,115
2018-01-23T10:38:01.255Z,120
2018-01-23T10:39:10.702Z,125
2018-01-23T10:40:20.686Z,125
2018-01-23T10:41:30.400Z,130
2018-01-23T10:42:40.380Z,130
2018-01-23T10:43:50.355Z,135
2018-01-23T10:45:00.116Z,135
2018-01-23T10:46:09.831Z,135
2018-01-23T10:47:19.281Z,135
2018-01-23T10:48:28.995Z,135
2018-01-23T10:49:38.977Z,135
2018-01-23T10:50:48.692Z,135
2018-01-23T10:51:58.140Z,135
2018-01-23T10:53:07.588Z,140
2018-01-23T10:54:17.567Z,140
2018-01-23T10:55:27.288Z,140
2018-01-23T10:56:37.003Z,145
2018-01-23T10:57:46.717Z,145
2018-01-23T10:58:55.952Z,145
2018-01-23T11:00:05.143Z,150
2018-01-23T11:01:15.124Z,150
2018-01-23T11:02:25.102Z,150
2018-01-23T11:03:34.816Z,150
2018-01-23T11:04:44.795Z,150
2018-01-23T11:05:54.512Z,150
2018-01-23T11:07:03.966Z,150
2018-01-23T11:08:13.950Z,150
2018-01-23T11:09:23.933Z,150
2018-01-23T11:10:33.913Z,150
2018-01-23T11:11:43.630Z,155
2018-01-23T11:12:53.610Z,155
2018-01-23T11:14:03.591Z,160
2018-01-23T11:15:13.304Z,165
2018-01-23T11:16:23.017Z,165
2018-01-23T11:17:33.001Z,165
2018-01-23T11:18:42.985Z,165
2018-01-23T11:19:52.966Z,160
2018-01-23T11:21:02.418Z,155
2018-01-23T11:22:12.249Z,150
2018-01-23T11:23:22.227Z,150
2018-01-23T11:24:31.689Z,145
2018-01-23T11:25:41.691Z,140
2018-01-23T11:26:51.721Z,140
2018-01-23T11:28:01.483Z,140
2018-01-23T11:29:11.195Z,140
2018-01-23T11:30:21.174Z,135
2018-01-23T11:31:30.885Z,140
2018-01-23T11:32:40.860Z,135
2018-01-23T11:33:50.858Z,140
2018-01-23T11:35:00.571Z,140
2018-01-23T11:36:09.759Z,140
2018-01-23T11:37:19.740Z,140
2018-01-23T11:38:29.187Z,140
2018-01-23T11:39:38.956Z,145
2018-01-23T11:40:48.406Z,140
2018-01-23T11:41:58.384Z,145
2018-01-23T11:43:08.360Z,140
2018-01-23T11:44:17.809Z,145
2018-01-23T11:45:27.783Z,140
2018-01-23T11:46:37.809Z,140
2018-01-23T11:47:47.790Z,140
2018-01-23T11:48:57.499Z,135
2018-01-23T11:50:07.005Z,135
2018-01-23T11:51:16.986Z,135
2018-01-23T11:52:26.967Z,130
2018-01-23T11:53:36.951Z,130
2018-01-23T11:54:46.669Z,125
2018-01-23T11:55:56.648Z,125
2018-01-23T11:57:06.775Z,120
2018-01-23T11:58:16.747Z,115
2018-01-23T11:59:26.464Z,115
2018-01-23T12:00:36.451Z,115
2018-01-23T12:01:46.166Z,115
2018-01-23T12:02:56.145Z,115
2018-01-23T12:04:05.857Z,115
2018-01-23T12:05:15.568Z,120
2018-01-23T12:06:25.544Z,120
2018-01-23T12:07:35.520Z,125
2018-01-23T12:08:45.499Z,120
2018-01-23T12:09:55.476Z,125
2018-01-23T12:11:05.458Z,125
2018-01-23T12:12:14.648Z,125
2018-01-23T12:13:24.095Z,125
2018-01-23T12:14:34.125Z,130
2018-01-23T12:15:44.107Z,125
2018-01-23T12:16:53.821Z,135
2018-01-23T12:18:03.803Z,135
2018-01-23T12:19:13.797Z,135
2018-01-23T12:20:23.510Z,135
2018-01-23T12:21:33.490Z,135
2018-01-23T12:22:43.471Z,135
2018-01-23T12:23:53.181Z,135
2018-01-23T12:25:02.897Z,135
2018-01-23T12:26:12.671Z,135
2018-01-23T12:27:22.382Z,135
2018-01-23T12:28:32.095Z,135
2018-01-23T12:29:42.071Z,135
2018-01-23T12:30:52.048Z,140
2018-01-23T12:32:01.493Z,140
2018-01-23T12:33:11.213Z,145
2018-01-23T12:34:21.190Z,145
2018-01-23T12:35:30.920Z,145
2018-01-23T12:36:40.363Z,145
2018-01-23T12:37:49.810Z,140
2018-01-23T12:38:59.792Z,135
2018-01-23T12:40:08.977Z,130
2018-01-23T12:41:18.434Z,130
2018-01-23T12:42:28.414Z,125
2018-01-23T12:43:38.326Z,120
2018-01-23T12:44:48.306Z,115
2018-01-23T12:45:58.291Z,115
2018-01-23T12:47:08.007Z,115
2018-01-23T12:48:17.984Z,120
2018-01-23T12:49:27.437Z,120
2018-01-23T12:50:37.153Z,125
2018-01-23T12:51:47.139Z,125
2018-01-23T12:52:57.117Z,125
2018-01-23T12:54:06.828Z,125
2018-01-23T12:55:16.539Z,125
2018-01-23T12:56:25.994Z,125
2018-01-23T12:57:35.708Z,120
2018-01-23T12:58:45.163Z,120
2018-01-23T12:59:54.608Z,120
2018-01-23T13:01:04.587Z,115
2018-01-23T13:02:14.564Z,115
2018-01-23T13:03:24.275Z,120
2018-01-23T13:04:33.991Z,105
2018-01-23T13:05:43.969Z,100
2018-01-23T13:06:53.690Z,100
2018-01-23T13:08:03.411Z,95
2018-01-23T13:09:12.862Z,100
2018-01-23T13:10:22.842Z,95
2018-01-23T13:11:32.555Z,95
2018-01-23T13:12:42.009Z,90
2018-01-23T13:13:52.015Z,90
2018-01-23T13:15:01.466Z,90
2018-01-23T13:16:11.441Z,85
2018-01-23T13:17:21.177Z,85
2018-01-23T13:18:30.899Z,85
2018-01-23T13:19:40.889Z,80
2018-01-23T13:20:50.609Z,80
2018-01-23T13:22:00.588Z,80
2018-01-23T13:23:10.299Z,75
2018-01-23T13:24:20.011Z,75
2018-01-23T13:25:29.998Z,75
2018-01-23T13:26:39.982Z,70
2018-01-23T13:27:49.960Z,70
2018-01-23T13:28:59.413Z,65
2018-01-23T13:30:08.864Z,65
2018-01-23T13:31:18.583Z,60
2018-01-23T13:32:28.567Z,55
2018-01-23T13:33:38.282Z,55
2018-01-23T13:34:47.734Z,55
2018-01-23T13:36:00.801Z,50
2018-01-23T13:37:10.405Z,50
2018-01-23T13:38:20.385Z,50
2018-01-23T13:39:30.102Z,50
2018-01-23T13:40:40.081Z,50
2018-01-23T13:41:50.058Z,45
2018-01-23T13:43:00.039Z,45
2018-01-23T13:44:10.022Z,45
2018-01-23T13:45:19.471Z,40
2018-01-23T13:46:29.454Z,40
2018-01-23T13:47:39.484Z,40
2018-01-23T13:48:48.944Z,35
2018-01-23T13:49:58.660Z,35
2018-01-23T13:51:07.844Z,35
2018-01-23T13:52:17.557Z,35
2018-01-23T13:53:27.269Z,35
2018-01-23T13:54:36.988Z,35
2018-01-23T13:55:46.966Z,35
2018-01-23T13:56:56.680Z,35
2018-01-23T13:58:06.394Z,35
2018-01-23T13:59:16.104Z,35
2018-01-23T14:00:26.098Z,35
2018-01-23T14:01:35.816Z,30
2018-01-23T14:02:45.794Z,30
2018-01-23T14:03:55.770Z,30
2018-01-23T14:05:05.281Z,30
2018-01-23T14:06:15.001Z,30
2018-01-23T14:07:24.976Z,30
2018-01-23T14:08:34.951Z,30
2018-01-23T14:09:44.666Z,25
2018-01-23T14:10:54.947Z,25
2018-01-23T14:12:04.663Z,25
2018-01-23T14:13:14.379Z,20
2018-01-23T14:14:24.095Z,20
2018-01-23T14:15:34.075Z,20
2018-01-23T14:16:44.156Z,20
2018-01-23T14:17:53.866Z,20
2018-01-23T14:19:03.580Z,15
2018-01-23T14:20:13.556Z,15
2018-01-23T14:21:23.532Z,15
2018-01-23T14:22:33.507Z,15
2018-01-23T14:23:43.220Z,15
2018-01-23T14:24:52.933Z,15
2018-01-23T14:26:02.381Z,15
2018-01-23T14:27:12.094Z,15
2018-01-23T14:28:22.227Z,15
2018-01-23T14:29:31.677Z,10
2018-01-23T14:30:41.393Z,10
2018-01-23T14:31:51.108Z,10
2018-01-23T14:33:00.827Z,10
2018-01-23T14:34:10.053Z,10
2018-01-23T14:35:19.826Z,10
2018-01-23T14:36:29.809Z,10
2018-01-23T14:37:39.789Z,10
2018-01-23T14:38:49.243Z,5
2018-01-23T14:39:59.226Z,5
2018-01-23T14:41:09.211Z,5
2018-01-23T14:42:18.400Z,5
2018-01-23T14:43:27.586Z,5
2018-01-23T14:44:37.565Z,5
2018-01-23T14:45:47.543Z,5
2018-01-23T14:46:57.515Z,5
2018-01-23T14:48:06.960Z,5
2018-01-23T14:49:16.938Z,5
2018-01-23T14:50:26.654Z,5
2018-01-23T14:51:36.368Z,5
2018-01-23T14:52:46.075Z,5
2018-01-23T14:53:55.541Z,5
2018-01-23T14:55:05.019Z,0
2018-01-23T14:56:14.999Z,0
2018-01-23T14:57:25.030Z,0
2018-01-23T14:58:34.487Z,0
2018-01-23T14:59:43.941Z,0
2018-01-23T15:00:53.652Z,0
2018-01-23T15:02:03.370Z,0
2018-01-23T15:03:13.402Z,0
2018-01-23T15:04:23.383Z,0
2018-01-23T15:05:33.359Z,0
2018-01-23T15:06:43.071Z,0
2018-01-23T15:07:52.805Z,0
2018-01-23T15:09:02.576Z,0
2018-01-23T15:10:12.292Z,0
2018-01-23T15:11:22.014Z,0
2018-01-23T15:12:31.731Z,0
2018-01-23T15:13:41.452Z,0
2018-01-23T15:14:51.428Z,0
2018-01-23T15:16:01.139Z,0
2018-01-23T15:17:10.852Z,0
2018-01-23T15:18:20.562Z,0
2018-01-23T15:19:30.277Z,0
2018-01-23T15:20:40.404Z,0
2018-01-23T15:21:50.402Z,0
2018-01-23T15:23:00.114Z,0
2018-01-23T15:24:09.821Z,0
2018-01-23T15:25:19.531Z,0
2018-01-23T15:26:29.242Z,0
2018-01-23T15:27:39.217Z,0
2018-01-23T15:28:49.195Z,0
2018-01-23T15:29:59.170Z,0
2018-01-23T15:31:08.619Z,0
2018-01-23T15:32:18.596Z,0
2018-01-23T15:33:28.575Z,0
2018-01-23T15:34:38.551Z,0
2018-01-23T15:35:48.532Z,0
2018-01-23T15:36:58.514Z,0
2018-01-23T15:38:08.227Z,0
2018-01-23T15:39:18.206Z,0
2018-01-23T15:40:28.191Z,0
2018-01-23T15:41:38.175Z,0
2018-01-23T15:42:48.149Z,0
2018-01-23T15:43:57.331Z,0
2018-01-23T15:45:07.315Z,0
2018-01-23T15:46:17.026Z,0
2018-01-23T15:47:26.740Z,0
2018-01-23T15:48:36.714Z,0
2018-01-23T15:49:46.695Z,0
2018-01-23T15:50:56.409Z,0
2018-01-23T15:52:06.389Z,0
2018-01-23T15:53:16.102Z,0
2018-01-23T15:54:26.082Z,0
2018-01-23T15:55:36.059Z,0
2018-01-23T15:56:46.044Z,0
2018-01-23T15:57:56.019Z,0
2018-01-23T15:59:05.996Z,0
2018-01-23T16:00:15.449Z,0
2018-01-23T16:01:25.181Z,0
2018-01-23T16:02:34.893Z,0
2018-01-23T16:03:44.866Z,0
2018-01-23T16:04:54.584Z,0
2018-01-23T16:06:04.297Z,0
2018-01-23T16:07:14.271Z,0
2018-01-23T16:08:23.984Z,0
2018-01-23T16:09:33.696Z,0
2018-01-23T16:10:43.408Z,0
2018-01-23T16:11:53.438Z,0
2018-01-23T16:13:03.418Z,0
2018-01-23T16:14:13.393Z,0
2018-01-23T16:15:23.370Z,0
2018-01-23T16:16:33.082Z,0
2018-01-23T16:17:42.533Z,0
2018-01-23T16:18:51.985Z,0
2018-01-23T16:20:01.167Z,0
2018-01-23T16:21:11.150Z,0
2018-01-23T16:22:21.125Z,0
2018-01-23T16:23:31.102Z,0
2018-01-23T16:24:41.082Z,0
2018-01-23T16:25:51.105Z,0
2018-01-23T16:27:01.079Z,0
2018-01-23T16:28:11.059Z,0
2018-01-23T16:29:21.034Z,0
2018-01-23T16:30:31.010Z,0
2018-01-23T16:31:40.986Z,0
2018-01-23T16:32:50.699Z,0
2018-01-23T16:34:00.675Z,0
2018-01-23T16:35:10.660Z,0
2018-01-23T16:36:20.637Z,0
2018-01-23T16:37:30.621Z,0
2018-01-23T16:38:40.608Z,0
2018-01-23T16:39:50.585Z,0
2018-01-23T16:41:00.561Z,0
2018-01-23T16:42:10.060Z,0
2018-01-23T16:43:20.038Z,0
2018-01-23T16:44:29.750Z,0
2018-01-23T16:45:39.469Z,0
2018-01-23T16:46:49.447Z,0
2018-01-23T16:47:58.893Z,0
2018-01-23T16:49:08.872Z,0
2018-01-23T16:50:18.863Z,0
2018-01-23T16:51:28.581Z,0
2018-01-23T16:52:38.296Z,0
2018-01-23T16:53:48.386Z,0
2018-01-23T16:54:58.368Z,0